sensor_id;sensor_type;location;lat;lon;timestamp;pressure;altitude;pressure_sealevel;temperature;humidity
51297;BME280;37380;45.186;9.792;2024-01-07T00:00:21;99488.38;;;6.03;94.93
51297;BME280;37380;45.186;9.792;2024-01-07T00:02:48;99487.88;;;6.05;94.71
51297;BME280;37380;45.186;9.792;2024-01-07T00:05:15;99484.59;;;6.12;94.60
51297;BME280;37380;45.186;9.792;2024-01-07T00:07:42;99488.63;;;6.17;94.77
51297;BME280;37380;45.186;9.792;2024-01-07T00:10:09;99473.81;;;6.03;94.95
51297;BME280;37380;45.186;9.792;2024-01-07T00:12:37;99465.75;;;5.99;94.81
51297;BME280;37380;45.186;9.792;2024-01-07T00:15:04;99470.03;;;6.00;95.38
51297;BME280;37380;45.186;9.792;2024-01-07T00:17:31;99475.31;;;6.04;95.09
51297;BME280;37380;45.186;9.792;2024-01-07T00:19:58;99474.81;;;6.05;94.62
51297;BME280;37380;45.186;9.792;2024-01-07T00:22:25;99470.81;;;6.06;95.14
51297;BME280;37380;45.186;9.792;2024-01-07T00:24:52;99469.03;;;6.03;94.59
51297;BME280;37380;45.186;9.792;2024-01-07T00:27:19;99473.31;;;5.99;94.81
51297;BME280;37380;45.186;9.792;2024-01-07T00:29:46;99472.28;;;6.02;95.15
51297;BME280;37380;45.186;9.792;2024-01-07T00:32:13;99471.28;;;5.99;94.92
51297;BME280;37380;45.186;9.792;2024-01-07T00:34:41;99477.56;;;6.05;94.92
51297;BME280;37380;45.186;9.792;2024-01-07T00:37:08;99479.84;;;6.01;94.83
51297;BME280;37380;45.186;9.792;2024-01-07T00:39:35;99493.41;;;6.05;94.48
51297;BME280;37380;45.186;9.792;2024-01-07T00:42:03;99486.38;;;6.04;94.87
51297;BME280;37380;45.186;9.792;2024-01-07T00:44:30;99490.38;;;6.03;95.21
51297;BME280;37380;45.186;9.792;2024-01-07T00:46:56;99488.63;;;6.05;95.71
51297;BME280;37380;45.186;9.792;2024-01-07T00:49:23;99491.38;;;6.05;95.25
51297;BME280;37380;45.186;9.792;2024-01-07T00:51:50;99495.91;;;6.08;95.10
51297;BME280;37380;45.186;9.792;2024-01-07T00:54:18;99497.66;;;6.00;95.20
51297;BME280;37380;45.186;9.792;2024-01-07T00:56:45;99492.63;;;5.93;94.87
51297;BME280;37380;45.186;9.792;2024-01-07T00:59:12;99502.94;;;5.98;95.76
51297;BME280;37380;45.186;9.792;2024-01-07T01:01:39;99497.66;;;6.00;95.36
51297;BME280;37380;45.186;9.792;2024-01-07T01:04:06;99502.69;;;6.02;95.25
51297;BME280;37380;45.186;9.792;2024-01-07T01:06:34;99498.91;;;5.99;95.22
51297;BME280;37380;45.186;9.792;2024-01-07T01:09:01;99507.72;;;6.03;95.59
51297;BME280;37380;45.186;9.792;2024-01-07T01:11:28;99507.47;;;6.07;95.54
51297;BME280;37380;45.186;9.792;2024-01-07T01:13:55;99506.44;;;6.04;95.23
51297;BME280;37380;45.186;9.792;2024-01-07T01:16:22;99511.25;;;6.04;94.94
51297;BME280;37380;45.186;9.792;2024-01-07T01:18:51;99508.47;;;6.04;95.68
51297;BME280;37380;45.186;9.792;2024-01-07T01:21:18;99511.47;;;6.11;95.65
51297;BME280;37380;45.186;9.792;2024-01-07T01:23:46;99508.22;;;6.19;95.01
51297;BME280;37380;45.186;9.792;2024-01-07T01:26:14;99513.72;;;6.02;95.10
51297;BME280;37380;45.186;9.792;2024-01-07T01:28:42;99518.53;;;6.01;95.55
51297;BME280;37380;45.186;9.792;2024-01-07T01:31:13;99520.25;;;6.04;95.00
51297;BME280;37380;45.186;9.792;2024-01-07T01:33:40;99518.50;;;6.07;94.74
51297;BME280;37380;45.186;9.792;2024-01-07T01:36:08;99514.25;;;6.11;94.53
51297;BME280;37380;45.186;9.792;2024-01-07T01:38:35;99512.25;;;6.06;94.85
51297;BME280;37380;45.186;9.792;2024-01-07T01:41:02;99518.03;;;6.08;94.78
51297;BME280;37380;45.186;9.792;2024-01-07T01:43:29;99514.00;;;6.04;94.84
51297;BME280;37380;45.186;9.792;2024-01-07T01:45:57;99515.75;;;6.01;95.30
51297;BME280;37380;45.186;9.792;2024-01-07T01:48:25;99516.50;;;6.02;95.09
51297;BME280;37380;45.186;9.792;2024-01-07T01:50:54;99513.72;;;6.02;95.48
51297;BME280;37380;45.186;9.792;2024-01-07T01:53:26;99511.72;;;6.02;95.23
51297;BME280;37380;45.186;9.792;2024-01-07T01:55:55;99519.78;;;6.17;95.23
51297;BME280;37380;45.186;9.792;2024-01-07T01:58:24;99519.53;;;6.26;94.75
51297;BME280;37380;45.186;9.792;2024-01-07T02:00:52;99524.31;;;6.20;94.49
51297;BME280;37380;45.186;9.792;2024-01-07T02:03:19;99527.06;;;6.31;95.22
51297;BME280;37380;45.186;9.792;2024-01-07T02:05:51;99529.84;;;6.15;94.58
51297;BME280;37380;45.186;9.792;2024-01-07T02:08:19;99533.09;;;6.13;95.41
51297;BME280;37380;45.186;9.792;2024-01-07T02:10:46;99538.88;;;6.09;95.09
51297;BME280;37380;45.186;9.792;2024-01-07T02:13:13;99535.84;;;6.07;95.63
51297;BME280;37380;45.186;9.792;2024-01-07T02:15:40;99531.59;;;6.01;95.47
51297;BME280;37380;45.186;9.792;2024-01-07T02:18:07;99537.84;;;5.96;95.61
51297;BME280;37380;45.186;9.792;2024-01-07T02:20:34;99533.88;;;6.14;95.36
51297;BME280;37380;45.186;9.792;2024-01-07T02:23:05;99539.41;;;6.14;94.91
51297;BME280;37380;45.186;9.792;2024-01-07T02:25:38;99541.88;;;6.11;95.21
51297;BME280;37380;45.186;9.792;2024-01-07T02:28:05;99543.91;;;6.05;94.60
51297;BME280;37380;45.186;9.792;2024-01-07T02:30:33;99535.09;;;6.07;94.37
51297;BME280;37380;45.186;9.792;2024-01-07T02:33:04;99537.59;;;6.05;94.81
51297;BME280;37380;45.186;9.792;2024-01-07T02:35:31;99539.63;;;6.10;94.71
51297;BME280;37380;45.186;9.792;2024-01-07T02:37:58;99540.91;;;6.20;95.13
51297;BME280;37380;45.186;9.792;2024-01-07T02:40:25;99525.81;;;6.10;94.54
51297;BME280;37380;45.186;9.792;2024-01-07T02:42:52;99538.13;;;6.03;95.37
51297;BME280;37380;45.186;9.792;2024-01-07T02:45:19;99542.59;;;5.95;95.16
51297;BME280;37380;45.186;9.792;2024-01-07T02:47:46;99537.53;;;5.83;95.79
51297;BME280;37380;45.186;9.792;2024-01-07T02:50:14;99537.28;;;5.81;96.09
51297;BME280;37380;45.186;9.792;2024-01-07T02:52:42;99539.34;;;5.91;95.68
51297;BME280;37380;45.186;9.792;2024-01-07T02:55:10;99537.34;;;5.97;95.27
51297;BME280;37380;45.186;9.792;2024-01-07T02:57:37;99533.84;;;6.08;95.29
51297;BME280;37380;45.186;9.792;2024-01-07T03:00:04;99536.59;;;6.02;95.84
51297;BME280;37380;45.186;9.792;2024-01-07T03:02:32;99540.63;;;6.01;95.77
51297;BME280;37380;45.186;9.792;2024-01-07T03:04:59;99541.59;;;5.93;95.36
51297;BME280;37380;45.186;9.792;2024-01-07T03:07:26;99536.34;;;5.89;95.65
51297;BME280;37380;45.186;9.792;2024-01-07T03:09:53;99536.59;;;5.91;95.84
51297;BME280;37380;45.186;9.792;2024-01-07T03:12:20;99542.84;;;5.97;95.18
51297;BME280;37380;45.186;9.792;2024-01-07T03:14:47;99539.59;;;6.04;95.93
51297;BME280;37380;45.186;9.792;2024-01-07T03:17:14;99547.38;;;5.89;95.50
51297;BME280;37380;45.186;9.792;2024-01-07T03:19:43;99539.31;;;5.86;95.98
51297;BME280;37380;45.186;9.792;2024-01-07T03:22:11;99549.41;;;5.94;96.48
51297;BME280;37380;45.186;9.792;2024-01-07T03:24:38;99545.16;;;6.10;95.63
51297;BME280;37380;45.186;9.792;2024-01-07T03:27:05;99539.59;;;5.93;95.15
51297;BME280;37380;45.186;9.792;2024-01-07T03:29:32;99553.38;;;5.88;95.32
51297;BME280;37380;45.186;9.792;2024-01-07T03:31:59;99558.88;;;5.82;96.63
51297;BME280;37380;45.186;9.792;2024-01-07T03:34:26;99568.66;;;5.83;96.73
51297;BME280;37380;45.186;9.792;2024-01-07T03:36:53;99569.22;;;5.93;96.51
51297;BME280;37380;45.186;9.792;2024-01-07T03:39:20;99564.69;;;5.84;96.98
51297;BME280;37380;45.186;9.792;2024-01-07T03:41:47;99569.41;;;5.78;96.39
51297;BME280;37380;45.186;9.792;2024-01-07T03:44:14;99568.41;;;5.81;96.80
51297;BME280;37380;45.186;9.792;2024-01-07T03:46:41;99568.41;;;5.81;96.63
51297;BME280;37380;45.186;9.792;2024-01-07T03:49:08;99569.19;;;5.82;96.54
51297;BME280;37380;45.186;9.792;2024-01-07T03:51:35;99568.41;;;5.81;97.24
51297;BME280;37380;45.186;9.792;2024-01-07T03:54:02;99574.47;;;5.85;96.96
51297;BME280;37380;45.186;9.792;2024-01-07T03:56:29;99561.94;;;5.84;96.50
51297;BME280;37380;45.186;9.792;2024-01-07T03:58:56;99561.69;;;5.88;97.06
51297;BME280;37380;45.186;9.792;2024-01-07T04:01:23;99563.44;;;5.85;96.98
51297;BME280;37380;45.186;9.792;2024-01-07T04:03:51;99565.97;;;5.94;96.84
51297;BME280;37380;45.186;9.792;2024-01-07T04:06:18;99568.41;;;5.81;96.50
51297;BME280;37380;45.186;9.792;2024-01-07T04:08:45;99566.91;;;5.80;96.83
51297;BME280;37380;45.186;9.792;2024-01-07T04:11:12;99563.63;;;5.76;97.63
51297;BME280;37380;45.186;9.792;2024-01-07T04:13:40;99564.63;;;5.79;96.92
51297;BME280;37380;45.186;9.792;2024-01-07T04:16:18;99575.94;;;5.81;97.26
51297;BME280;37380;45.186;9.792;2024-01-07T04:18:46;99579.53;;;5.87;97.32
51297;BME280;37380;45.186;9.792;2024-01-07T04:21:19;99577.53;;;5.87;97.69
51297;BME280;37380;45.186;9.792;2024-01-07T04:23:46;99576.75;;;5.92;97.41
51297;BME280;37380;45.186;9.792;2024-01-07T04:26:13;99574.28;;;5.94;97.33
51297;BME280;37380;45.186;9.792;2024-01-07T04:28:43;99586.56;;;5.93;96.46
51297;BME280;37380;45.186;9.792;2024-01-07T04:31:14;99575.50;;;5.93;97.20
51297;BME280;37380;45.186;9.792;2024-01-07T04:33:41;99580.03;;;5.91;96.97
51297;BME280;37380;45.186;9.792;2024-01-07T04:36:08;99585.03;;;5.92;96.54
51297;BME280;37380;45.186;9.792;2024-01-07T04:38:36;99580.53;;;5.89;96.92
51297;BME280;37380;45.186;9.792;2024-01-07T04:41:03;99585.81;;;5.93;96.25
51297;BME280;37380;45.186;9.792;2024-01-07T04:43:30;99590.56;;;5.92;97.06
51297;BME280;37380;45.186;9.792;2024-01-07T04:45:57;99588.09;;;5.94;96.78
51297;BME280;37380;45.186;9.792;2024-01-07T04:48:24;99592.59;;;5.97;97.16
51297;BME280;37380;45.186;9.792;2024-01-07T04:50:51;99600.88;;;5.97;96.95
51297;BME280;37380;45.186;9.792;2024-01-07T04:53:18;99601.91;;;6.00;97.45
51297;BME280;37380;45.186;9.792;2024-01-07T04:55:45;99592.38;;;6.01;96.89
51297;BME280;37380;45.186;9.792;2024-01-07T04:58:12;99600.41;;;5.99;96.51
51297;BME280;37380;45.186;9.792;2024-01-07T05:00:39;99599.66;;;5.98;96.78
51297;BME280;37380;45.186;9.792;2024-01-07T05:03:06;99600.19;;;6.14;96.17
51297;BME280;37380;45.186;9.792;2024-01-07T05:05:33;99598.16;;;6.03;96.38
51297;BME280;37380;45.186;9.792;2024-01-07T05:08:00;99603.16;;;6.04;95.97
51297;BME280;37380;45.186;9.792;2024-01-07T05:10:27;99603.16;;;5.99;96.70
51297;BME280;37380;45.186;9.792;2024-01-07T05:12:54;99603.94;;;6.10;96.15
51297;BME280;37380;45.186;9.792;2024-01-07T05:15:21;99608.19;;;6.00;96.17
51297;BME280;37380;45.186;9.792;2024-01-07T05:17:48;99599.13;;;6.00;96.54
51297;BME280;37380;45.186;9.792;2024-01-07T05:20:15;99601.41;;;5.96;95.97
51297;BME280;37380;45.186;9.792;2024-01-07T05:22:43;99605.19;;;6.09;95.62
51297;BME280;37380;45.186;9.792;2024-01-07T05:25:10;99607.16;;;5.98;95.96
51297;BME280;37380;45.186;9.792;2024-01-07T05:27:37;99605.16;;;5.87;96.10
51297;BME280;37380;45.186;9.792;2024-01-07T05:30:05;99608.41;;;5.91;96.54
51297;BME280;37380;45.186;9.792;2024-01-07T05:32:32;99610.66;;;5.87;96.78
51297;BME280;37380;45.186;9.792;2024-01-07T05:34:59;99608.34;;;5.80;96.27
51297;BME280;37380;45.186;9.792;2024-01-07T05:37:27;99608.84;;;5.79;96.60
51297;BME280;37380;45.186;9.792;2024-01-07T05:39:53;99607.63;;;5.85;97.01
51297;BME280;37380;45.186;9.792;2024-01-07T05:42:20;99609.72;;;6.01;96.21
51297;BME280;37380;45.186;9.792;2024-01-07T05:44:48;99609.22;;;6.14;96.32
51297;BME280;37380;45.186;9.792;2024-01-07T05:47:15;99598.41;;;6.05;95.84
51297;BME280;37380;45.186;9.792;2024-01-07T05:49:42;99599.91;;;6.06;95.75
51297;BME280;37380;45.186;9.792;2024-01-07T05:52:09;99601.41;;;6.01;96.25
51297;BME280;37380;45.186;9.792;2024-01-07T05:54:36;99604.19;;;6.01;96.27
51297;BME280;37380;45.186;9.792;2024-01-07T05:57:03;99601.19;;;6.10;96.09
51297;BME280;37380;45.186;9.792;2024-01-07T05:59:30;99602.72;;;6.23;95.58
51297;BME280;37380;45.186;9.792;2024-01-07T06:02:00;99610.00;;;6.20;96.04
51297;BME280;37380;45.186;9.792;2024-01-07T06:04:28;99607.22;;;6.15;95.96
51297;BME280;37380;45.186;9.792;2024-01-07T06:06:55;99604.97;;;6.13;96.09
51297;BME280;37380;45.186;9.792;2024-01-07T06:09:22;99613.22;;;6.07;95.89
51297;BME280;37380;45.186;9.792;2024-01-07T06:11:49;99610.47;;;6.19;95.90
51297;BME280;37380;45.186;9.792;2024-01-07T06:14:16;99605.97;;;6.16;96.24
51297;BME280;37380;45.186;9.792;2024-01-07T06:16:43;99608.25;;;6.23;95.72
51297;BME280;37380;45.186;9.792;2024-01-07T06:19:10;99613.25;;;6.13;95.80
51297;BME280;37380;45.186;9.792;2024-01-07T06:21:37;99624.81;;;6.17;95.97
51297;BME280;37380;45.186;9.792;2024-01-07T06:24:04;99615.75;;;6.17;96.08
51297;BME280;37380;45.186;9.792;2024-01-07T06:26:31;99621.53;;;6.19;96.19
51297;BME280;37380;45.186;9.792;2024-01-07T06:28:58;99630.31;;;6.11;96.33
51297;BME280;37380;45.186;9.792;2024-01-07T06:31:25;99629.31;;;6.15;96.00
51297;BME280;37380;45.186;9.792;2024-01-07T06:33:53;99633.38;;;6.14;96.17
51297;BME280;37380;45.186;9.792;2024-01-07T06:36:23;99633.38;;;6.14;96.39
51297;BME280;37380;45.186;9.792;2024-01-07T06:38:50;99643.16;;;6.15;95.98
51297;BME280;37380;45.186;9.792;2024-01-07T06:41:17;99633.63;;;6.16;96.76
51297;BME280;37380;45.186;9.792;2024-01-07T06:43:44;99639.66;;;6.20;96.39
51297;BME280;37380;45.186;9.792;2024-01-07T06:46:11;99636.63;;;6.18;96.09
51297;BME280;37380;45.186;9.792;2024-01-07T06:48:38;99643.41;;;6.17;96.29
51297;BME280;37380;45.186;9.792;2024-01-07T06:51:09;99652.69;;;6.19;96.56
51297;BME280;37380;45.186;9.792;2024-01-07T06:53:36;99664.53;;;6.20;95.96
51297;BME280;37380;45.186;9.792;2024-01-07T06:56:03;99648.19;;;6.22;96.68
51297;BME280;37380;45.186;9.792;2024-01-07T06:58:30;99658.00;;;6.23;96.41
51297;BME280;37380;45.186;9.792;2024-01-07T07:00:58;99648.44;;;6.24;96.36
51297;BME280;37380;45.186;9.792;2024-01-07T07:03:26;99659.00;;;6.20;96.14
51297;BME280;37380;45.186;9.792;2024-01-07T07:05:53;99657.47;;;6.19;96.13
51297;BME280;37380;45.186;9.792;2024-01-07T07:08:20;99663.28;;;6.21;95.99
51297;BME280;37380;45.186;9.792;2024-01-07T07:10:47;99663.00;;;6.19;96.18
51297;BME280;37380;45.186;9.792;2024-01-07T07:13:14;99667.28;;;6.20;96.29
51297;BME280;37380;45.186;9.792;2024-01-07T07:15:41;99672.31;;;6.21;96.62
51297;BME280;37380;45.186;9.792;2024-01-07T07:18:08;99678.34;;;6.20;96.41
51297;BME280;37380;45.186;9.792;2024-01-07T07:20:35;99687.66;;;6.22;96.74
51297;BME280;37380;45.186;9.792;2024-01-07T07:23:02;99685.66;;;6.23;96.64
51297;BME280;37380;45.186;9.792;2024-01-07T07:25:29;99679.13;;;6.26;96.73
51297;BME280;37380;45.186;9.792;2024-01-07T07:27:56;99684.66;;;6.26;96.46
51297;BME280;37380;45.186;9.792;2024-01-07T07:30:23;99686.16;;;6.27;96.25
51297;BME280;37380;45.186;9.792;2024-01-07T07:32:50;99695.47;;;6.29;96.44
51297;BME280;37380;45.186;9.792;2024-01-07T07:35:17;99687.41;;;6.31;96.82
51297;BME280;37380;45.186;9.792;2024-01-07T07:37:45;99701.50;;;6.33;96.64
51297;BME280;37380;45.186;9.792;2024-01-07T07:40:13;99694.22;;;6.36;96.38
51297;BME280;37380;45.186;9.792;2024-01-07T07:42:40;99695.75;;;6.37;96.81
51297;BME280;37380;45.186;9.792;2024-01-07T07:45:07;99692.47;;;6.38;96.46
51297;BME280;37380;45.186;9.792;2024-01-07T07:47:38;99696.25;;;6.41;96.27
51297;BME280;37380;45.186;9.792;2024-01-07T07:50:08;99701.00;;;6.40;96.84
51297;BME280;37380;45.186;9.792;2024-01-07T07:52:37;99699.25;;;6.43;96.52
51297;BME280;37380;45.186;9.792;2024-01-07T07:55:04;99701.28;;;6.48;96.68
51297;BME280;37380;45.186;9.792;2024-01-07T07:57:33;99697.03;;;6.52;96.75
51297;BME280;37380;45.186;9.792;2024-01-07T08:00:01;99700.81;;;6.60;96.13
51297;BME280;37380;45.186;9.792;2024-01-07T08:02:31;99702.56;;;6.58;96.13
51297;BME280;37380;45.186;9.792;2024-01-07T08:04:59;99708.88;;;6.64;96.58
51297;BME280;37380;45.186;9.792;2024-01-07T08:07:26;99702.09;;;6.65;96.15
51297;BME280;37380;45.186;9.792;2024-01-07T08:09:53;99703.34;;;6.69;96.12
51297;BME280;37380;45.186;9.792;2024-01-07T08:12:20;99701.09;;;6.73;96.06
51297;BME280;37380;45.186;9.792;2024-01-07T08:14:47;99702.38;;;6.78;96.17
51297;BME280;37380;45.186;9.792;2024-01-07T08:17:14;99706.38;;;6.77;96.11
51297;BME280;37380;45.186;9.792;2024-01-07T08:19:41;99711.69;;;6.86;96.05
51297;BME280;37380;45.186;9.792;2024-01-07T08:22:08;99713.19;;;6.87;96.10
51297;BME280;37380;45.186;9.792;2024-01-07T08:24:39;99706.16;;;6.92;96.18
51297;BME280;37380;45.186;9.792;2024-01-07T08:27:06;99708.94;;;6.97;96.43
51297;BME280;37380;45.186;9.792;2024-01-07T08:29:33;99705.66;;;6.99;96.24
51297;BME280;37380;45.186;9.792;2024-01-07T08:32:03;99707.19;;;7.00;95.71
51297;BME280;37380;45.186;9.792;2024-01-07T08:34:31;99719.50;;;7.04;95.68
51297;BME280;37380;45.186;9.792;2024-01-07T08:36:58;99718.47;;;7.07;95.91
51297;BME280;37380;45.186;9.792;2024-01-07T08:39:25;99719.00;;;7.11;96.18
51297;BME280;37380;45.186;9.792;2024-01-07T08:41:52;99726.81;;;7.18;96.65
51297;BME280;37380;45.186;9.792;2024-01-07T08:44:20;99719.00;;;7.22;95.66
51297;BME280;37380;45.186;9.792;2024-01-07T08:46:47;99731.84;;;7.25;95.63
51297;BME280;37380;45.186;9.792;2024-01-07T08:49:14;99725.28;;;7.28;95.92
51297;BME280;37380;45.186;9.792;2024-01-07T08:51:42;99726.53;;;7.38;95.51
51297;BME280;37380;45.186;9.792;2024-01-07T08:54:09;99734.38;;;7.40;94.43
51297;BME280;37380;45.186;9.792;2024-01-07T08:56:36;99728.78;;;7.68;93.78
51297;BME280;37380;45.186;9.792;2024-01-07T08:59:03;99731.56;;;7.51;93.99
51297;BME280;37380;45.186;9.792;2024-01-07T09:01:31;99736.88;;;7.55;94.60
51297;BME280;37380;45.186;9.792;2024-01-07T09:03:58;99735.09;;;7.63;95.09
51297;BME280;37380;45.186;9.792;2024-01-07T09:06:25;99739.63;;;7.66;94.77
51297;BME280;37380;45.186;9.792;2024-01-07T09:08:53;99742.63;;;7.73;95.03
51297;BME280;37380;45.186;9.792;2024-01-07T09:11:20;99750.91;;;7.84;94.98
51297;BME280;37380;45.186;9.792;2024-01-07T09:13:47;99747.91;;;7.82;94.81
51297;BME280;37380;45.186;9.792;2024-01-07T09:16:16;99753.44;;;7.82;94.33
51297;BME280;37380;45.186;9.792;2024-01-07T09:18:43;99752.66;;;7.93;94.49
51297;BME280;37380;45.186;9.792;2024-01-07T09:21:13;99747.13;;;7.87;94.35
51297;BME280;37380;45.186;9.792;2024-01-07T09:23:44;99757.69;;;7.94;94.02
51297;BME280;37380;45.186;9.792;2024-01-07T09:26:11;99754.16;;;7.99;94.21
51297;BME280;37380;45.186;9.792;2024-01-07T09:28:38;99756.41;;;8.01;94.45
51297;BME280;37380;45.186;9.792;2024-01-07T09:31:06;99755.66;;;8.06;94.46
51297;BME280;37380;45.186;9.792;2024-01-07T09:33:33;99760.72;;;8.02;94.00
51297;BME280;37380;45.186;9.792;2024-01-07T09:36:00;99762.44;;;8.05;93.86
51297;BME280;37380;45.186;9.792;2024-01-07T09:38:41;99757.88;;;8.19;94.46
51297;BME280;37380;45.186;9.792;2024-01-07T09:41:08;99769.72;;;8.30;94.03
51297;BME280;37380;45.186;9.792;2024-01-07T09:43:35;99769.25;;;8.26;93.84
51297;BME280;37380;45.186;9.792;2024-01-07T09:46:03;99772.97;;;8.40;93.58
51297;BME280;37380;45.186;9.792;2024-01-07T09:48:30;99767.66;;;8.47;93.61
51297;BME280;37380;45.186;9.792;2024-01-07T09:50:57;99768.81;;;8.63;94.28
51297;BME280;37380;45.186;9.792;2024-01-07T09:53:29;99766.38;;;8.48;92.81
51297;BME280;37380;45.186;9.792;2024-01-07T09:56:06;99769.91;;;8.49;92.84
51297;BME280;37380;45.186;9.792;2024-01-07T09:58:34;99783.47;;;8.58;93.50
51297;BME280;37380;45.186;9.792;2024-01-07T10:01:02;99783.44;;;8.63;93.54
51297;BME280;37380;45.186;9.792;2024-01-07T10:03:32;99782.38;;;8.72;92.53
51297;BME280;37380;45.186;9.792;2024-01-07T10:05:59;99789.00;;;8.69;92.31
51297;BME280;37380;45.186;9.792;2024-01-07T10:08:26;99780.69;;;8.63;92.71
51297;BME280;37380;45.186;9.792;2024-01-07T10:10:57;99780.19;;;8.59;92.43
51297;BME280;37380;45.186;9.792;2024-01-07T10:13:24;99788.03;;;8.55;92.66
51297;BME280;37380;45.186;9.792;2024-01-07T10:15:51;99787.47;;;8.62;93.22
51297;BME280;37380;45.186;9.792;2024-01-07T10:18:19;99787.00;;;8.64;93.10
51297;BME280;37380;45.186;9.792;2024-01-07T10:20:46;99782.91;;;8.70;93.37
51297;BME280;37380;45.186;9.792;2024-01-07T10:23:19;99794.72;;;8.76;92.76
51297;BME280;37380;45.186;9.792;2024-01-07T10:25:46;99791.38;;;8.89;92.92
51297;BME280;37380;45.186;9.792;2024-01-07T10:28:14;99782.81;;;8.87;91.79
51297;BME280;37380;45.186;9.792;2024-01-07T10:30:51;99785.56;;;8.93;92.17
51297;BME280;37380;45.186;9.792;2024-01-07T10:33:19;99782.19;;;9.05;92.57
51297;BME280;37380;45.186;9.792;2024-01-07T10:35:56;99781.25;;;8.97;91.07
51297;BME280;37380;45.186;9.792;2024-01-07T10:38:27;99781.50;;;8.99;91.03
51297;BME280;37380;45.186;9.792;2024-01-07T10:40:55;99778.06;;;9.17;91.04
51297;BME280;37380;45.186;9.792;2024-01-07T10:43:22;99771.38;;;9.02;91.27
51297;BME280;37380;45.186;9.792;2024-01-07T10:45:50;99772.91;;;9.03;91.77
51297;BME280;37380;45.186;9.792;2024-01-07T10:48:18;99773.25;;;8.82;90.15
51297;BME280;37380;45.186;9.792;2024-01-07T10:50:50;99770.66;;;8.96;90.97
51297;BME280;37380;45.186;9.792;2024-01-07T10:53:21;99774.47;;;8.93;90.85
51297;BME280;37380;45.186;9.792;2024-01-07T10:56:00;99770.19;;;8.92;91.05
51297;BME280;37380;45.186;9.792;2024-01-07T10:58:36;99768.69;;;8.91;91.12
51297;BME280;37380;45.186;9.792;2024-01-07T11:01:03;99765.81;;;9.02;90.15
51297;BME280;37380;45.186;9.792;2024-01-07T11:06:42;99764.31;;;9.01;90.77
51297;BME280;37380;45.186;9.792;2024-01-07T11:11:46;99769.97;;;8.84;90.30
51297;BME280;37380;45.186;9.792;2024-01-07T11:14:37;99759.84;;;8.87;91.08
51297;BME280;37380;45.186;9.792;2024-01-07T11:17:06;99759.91;;;8.81;90.36
51297;BME280;37380;45.186;9.792;2024-01-07T11:19:37;99761.69;;;8.78;91.23
51297;BME280;37380;45.186;9.792;2024-01-07T11:24:51;99755.63;;;8.74;91.45
51297;BME280;37380;45.186;9.792;2024-01-07T11:27:18;99749.91;;;8.61;90.97
51297;BME280;37380;45.186;9.792;2024-01-07T11:29:55;99753.06;;;8.82;91.26
51297;BME280;37380;45.186;9.792;2024-01-07T11:32:29;99750.38;;;8.71;91.28
51297;BME280;37380;45.186;9.792;2024-01-07T11:34:56;99746.06;;;8.75;91.32
51297;BME280;37380;45.186;9.792;2024-01-07T11:37:26;99753.63;;;8.69;91.74
51297;BME280;37380;45.186;9.792;2024-01-07T11:39:56;99749.06;;;8.77;92.16
51297;BME280;37380;45.186;9.792;2024-01-07T11:42:24;99745.03;;;8.78;92.27
51297;BME280;37380;45.186;9.792;2024-01-07T11:44:53;99743.28;;;8.75;91.50
51297;BME280;37380;45.186;9.792;2024-01-07T11:47:22;99755.81;;;8.88;91.90
51297;BME280;37380;45.186;9.792;2024-01-07T11:49:49;99759.63;;;8.79;91.77
51297;BME280;37380;45.186;9.792;2024-01-07T11:52:17;99753.53;;;8.86;91.90
51297;BME280;37380;45.186;9.792;2024-01-07T11:54:46;99759.06;;;8.92;91.92
51297;BME280;37380;45.186;9.792;2024-01-07T11:57:13;99753.03;;;8.93;91.71
51297;BME280;37380;45.186;9.792;2024-01-07T11:59:40;99751.47;;;8.98;91.67
51297;BME280;37380;45.186;9.792;2024-01-07T12:02:11;99752.53;;;8.89;91.60
51297;BME280;37380;45.186;9.792;2024-01-07T12:04:38;99744.13;;;9.00;91.66
51297;BME280;37380;45.186;9.792;2024-01-07T12:07:05;99752.56;;;8.84;91.06
51297;BME280;37380;45.186;9.792;2024-01-07T12:09:32;99754.06;;;8.85;91.65
51297;BME280;37380;45.186;9.792;2024-01-07T12:11:59;99755.13;;;8.76;90.99
51297;BME280;37380;45.186;9.792;2024-01-07T12:14:28;99758.94;;;8.73;91.16
51297;BME280;37380;45.186;9.792;2024-01-07T12:16:56;99759.94;;;8.75;92.10
51297;BME280;37380;45.186;9.792;2024-01-07T12:19:23;99757.47;;;8.66;91.72
51297;BME280;37380;45.186;9.792;2024-01-07T12:22:11;99750.69;;;8.62;91.75
51297;BME280;37380;45.186;9.792;2024-01-07T12:24:38;99754.16;;;8.68;92.28
51297;BME280;37380;45.186;9.792;2024-01-07T12:27:06;99760.19;;;8.72;90.68
51297;BME280;37380;45.186;9.792;2024-01-07T12:29:33;99757.38;;;8.77;90.49
51297;BME280;37380;45.186;9.792;2024-01-07T12:32:01;99760.69;;;8.76;90.84
51297;BME280;37380;45.186;9.792;2024-01-07T12:34:30;99762.16;;;8.82;91.82
51297;BME280;37380;45.186;9.792;2024-01-07T12:36:58;99767.94;;;8.85;91.37
51297;BME280;37380;45.186;9.792;2024-01-07T12:39:26;99758.94;;;8.67;91.34
51297;BME280;37380;45.186;9.792;2024-01-07T12:41:54;99762.03;;;8.58;91.45
51297;BME280;37380;45.186;9.792;2024-01-07T12:44:22;99767.06;;;8.60;91.87
51297;BME280;37380;45.186;9.792;2024-01-07T12:46:49;99762.06;;;8.53;92.66
51297;BME280;37380;45.186;9.792;2024-01-07T12:49:18;99766.38;;;8.48;92.51
51297;BME280;37380;45.186;9.792;2024-01-07T12:51:46;99762.13;;;8.36;92.53
51297;BME280;37380;45.186;9.792;2024-01-07T12:54:13;99761.81;;;8.51;92.69
51297;BME280;37380;45.186;9.792;2024-01-07T12:56:40;99760.84;;;8.43;92.95
51297;BME280;37380;45.186;9.792;2024-01-07T12:59:07;99758.28;;;8.50;92.38
51297;BME280;37380;45.186;9.792;2024-01-07T13:01:34;99754.78;;;8.44;92.34
51297;BME280;37380;45.186;9.792;2024-01-07T13:04:04;99760.56;;;8.46;92.13
51297;BME280;37380;45.186;9.792;2024-01-07T13:06:32;99760.09;;;8.42;92.04
51297;BME280;37380;45.186;9.792;2024-01-07T13:08:59;99760.88;;;8.37;92.16
51297;BME280;37380;45.186;9.792;2024-01-07T13:11:31;99771.22;;;8.31;92.03
51297;BME280;37380;45.186;9.792;2024-01-07T13:13:58;99770.47;;;8.31;92.20
51297;BME280;37380;45.186;9.792;2024-01-07T13:16:27;99770.19;;;8.40;92.26
51297;BME280;37380;45.186;9.792;2024-01-07T13:18:55;99772.66;;;8.54;92.35
51297;BME280;37380;45.186;9.792;2024-01-07T13:21:22;99774.38;;;8.63;92.70